Time;durP1;ratioP1;P1;durP2;ratioP2;P2;SDS_P1;SDS_P2;PMS_P1;PMS_P2;Temp;Humidity;BMP_temperature;BMP_pressure;BME280_temperature;BME280_humidity;BME280_pressure;Samples;Min_cycle;Max_cycle;Signal;HPM_P1;HPM_P2
2023/06/15 00:00:09;;;;;;;9.07;5.43;;;15.00;99.90;;;;;;5033968;28;20034;-68
2023/06/15 00:02:35;;;;;;;15.35;5.35;;;15.00;99.90;;;;;;5033801;28;20083;-70
2023/06/15 00:05:00;;;;;;;12.68;5.88;;;14.90;99.90;;;;;;5034283;28;20037;-68
2023/06/15 00:07:26;;;;;;;12.98;5.20;;;14.90;99.90;;;;;;5033907;28;20105;-68
2023/06/15 00:09:52;;;;;;;12.10;5.35;;;14.90;99.90;;;;;;5033767;28;20028;-69
2023/06/15 00:12:18;;;;;;;15.85;6.60;;;14.80;99.90;;;;;;5034177;28;20021;-68
2023/06/15 00:14:43;;;;;;;12.88;6.30;;;14.80;99.90;;;;;;5033641;28;20448;-69
2023/06/15 00:17:11;;;;;;;13.30;5.90;;;14.70;99.90;;;;;;5029003;28;20376;-69
2023/06/15 00:19:37;;;;;;;11.18;5.95;;;14.70;99.90;;;;;;5033287;28;20053;-67
2023/06/15 00:22:04;;;;;;;12.13;5.93;;;14.70;99.90;;;;;;5033823;28;20017;-71
2023/06/15 00:24:30;;;;;;;13.82;6.88;;;14.60;99.90;;;;;;5033064;28;20152;-70
2023/06/15 00:26:55;;;;;;;11.07;5.93;;;14.60;99.90;;;;;;5033286;28;20108;-69
2023/06/15 00:29:21;;;;;;;13.82;6.20;;;14.50;99.90;;;;;;5033741;28;20037;-67
2023/06/15 00:34:12;;;;;;;10.35;5.63;;;14.50;99.90;;;;;;5009888;28;20022;-69
2023/06/15 00:36:38;;;;;;;8.75;6.13;;;14.50;99.90;;;;;;5033163;28;20121;-69
2023/06/15 00:39:04;;;;;;;18.02;6.65;;;14.40;99.90;;;;;;5034665;28;20364;-69
2023/06/15 00:41:30;;;;;;;10.70;6.85;;;14.50;99.90;;;;;;5034607;28;20071;-69
2023/06/15 00:43:55;;;;;;;10.45;6.47;;;14.40;99.90;;;;;;5034161;28;20044;-69
2023/06/15 00:46:22;;;;;;;10.80;6.78;;;14.40;99.90;;;;;;5034040;28;20045;-71
2023/06/15 00:48:48;;;;;;;12.77;7.32;;;14.40;99.90;;;;;;5034098;28;20029;-69
2023/06/15 00:51:14;;;;;;;15.15;7.20;;;14.30;99.90;;;;;;5033946;28;20026;-70
2023/06/15 00:53:42;;;;;;;14.82;6.88;;;14.30;99.90;;;;;;5033821;28;20037;-71
2023/06/15 00:56:08;;;;;;;14.68;7.75;;;14.30;99.90;;;;;;5033778;28;20117;-69
2023/06/15 00:58:35;;;;;;;13.88;8.45;;;14.20;99.90;;;;;;5033133;28;20049;-70
2023/06/15 01:01:01;;;;;;;14.52;8.15;;;14.10;99.90;;;;;;5033795;28;20474;-71
2023/06/15 01:03:30;;;;;;;14.10;8.85;;;14.10;99.90;;;;;;5033566;28;20017;-69
2023/06/15 01:05:58;;;;;;;17.23;8.75;;;14.10;99.90;;;;;;5033833;28;20026;-69
2023/06/15 01:08:26;;;;;;;15.73;8.93;;;14.00;99.90;;;;;;5015742;28;20029;-69
2023/06/15 01:10:53;;;;;;;20.08;8.38;;;14.00;99.90;;;;;;5033643;28;20033;-71
2023/06/15 01:13:20;;;;;;;18.00;9.57;;;14.00;99.90;;;;;;5033606;28;20025;-69
2023/06/15 01:15:55;;;;;;;18.05;10.00;;;14.00;99.90;;;;;;5033333;28;20079;-69
2023/06/15 01:18:24;;;;;;;19.42;9.75;;;13.90;99.90;;;;;;5032780;28;20161;-70
2023/06/15 01:20:53;;;;;;;18.23;9.88;;;13.90;99.90;;;;;;5023609;28;20129;-69
2023/06/15 01:23:55;;;;;;;19.15;9.93;;;13.90;99.90;;;;;;5015594;28;20363;-69
2023/06/15 01:26:24;;;;;;;14.48;9.75;;;13.80;99.90;;;;;;5032731;28;20037;-68
2023/06/15 01:28:50;;;;;;;21.25;10.57;;;13.80;99.90;;;;;;5033390;28;20026;-68
2023/06/15 01:31:17;;;;;;;17.95;10.07;;;13.70;99.90;;;;;;5032953;28;20046;-68
2023/06/15 01:33:50;;;;;;;18.88;10.90;;;13.60;99.90;;;;;;5033520;28;20083;-68
2023/06/15 01:36:17;;;;;;;21.55;10.00;;;13.50;99.90;;;;;;5015306;28;20041;-68
2023/06/15 01:38:44;;;;;;;23.58;10.65;;;13.50;99.90;;;;;;5032707;28;20025;-68
2023/06/15 01:41:11;;;;;;;19.67;11.38;;;13.50;99.90;;;;;;5033126;28;20021;-69
2023/06/15 01:43:38;;;;;;;22.95;10.73;;;13.50;99.90;;;;;;5025542;28;20025;-68
2023/06/15 01:46:05;;;;;;;21.98;10.45;;;13.50;99.90;;;;;;5015930;28;20017;-69
2023/06/15 01:48:31;;;;;;;21.38;10.75;;;13.50;99.90;;;;;;5015133;28;20026;-68
2023/06/15 01:50:57;;;;;;;19.98;10.75;;;13.40;99.90;;;;;;4998062;28;20168;-69
2023/06/15 01:53:23;;;;;;;22.95;11.23;;;13.40;99.90;;;;;;5013067;28;20070;-69
2023/06/15 01:55:50;;;;;;;18.13;10.38;;;13.40;99.90;;;;;;5012850;28;20460;-68
2023/06/15 01:58:16;;;;;;;21.65;10.32;;;13.40;99.90;;;;;;4995557;28;20490;-68
2023/06/15 02:00:46;;;;;;;17.23;9.98;;;13.40;99.90;;;;;;4995333;28;20026;-68
2023/06/15 02:03:12;;;;;;;19.80;10.43;;;13.30;99.90;;;;;;5012868;28;20061;-68
2023/06/15 02:05:41;;;;;;;22.33;11.27;;;13.30;99.90;;;;;;5012896;28;20029;-68
2023/06/15 02:08:08;;;;;;;19.23;10.50;;;13.20;99.90;;;;;;5012256;28;20018;-68
2023/06/15 02:10:34;;;;;;;20.70;10.27;;;13.10;99.90;;;;;;5011204;28;20161;-68
2023/06/15 02:13:00;;;;;;;20.90;12.48;;;13.10;99.90;;;;;;5012872;28;20030;-68
2023/06/15 02:15:26;;;;;;;18.63;11.07;;;13.00;99.90;;;;;;5012621;28;20038;-68
2023/06/15 02:17:58;;;;;;;19.98;10.90;;;13.00;99.90;;;;;;5012625;28;20456;-70
2023/06/15 02:20:25;;;;;;;24.33;10.88;;;13.00;99.90;;;;;;5012043;28;20066;-69
2023/06/15 02:22:52;;;;;;;25.38;10.57;;;13.00;99.90;;;;;;5012794;28;20033;-68
2023/06/15 02:25:19;;;;;;;24.95;11.27;;;12.90;99.90;;;;;;5012738;28;20021;-70
2023/06/15 02:27:45;;;;;;;22.98;10.73;;;12.90;99.90;;;;;;5012795;28;20026;-70
2023/06/15 02:30:11;;;;;;;15.98;10.18;;;12.70;99.90;;;;;;5011339;28;20074;-68
2023/06/15 02:32:39;;;;;;;17.98;11.32;;;12.70;99.90;;;;;;5012424;28;20029;-69
2023/06/15 02:35:10;;;;;;;24.45;11.40;;;12.60;99.90;;;;;;5011930;28;20032;-69
2023/06/15 02:37:36;;;;;;;18.55;10.63;;;12.60;99.90;;;;;;5013048;28;20026;-69
2023/06/15 02:40:06;;;;;;;17.83;10.73;;;12.60;99.90;;;;;;4995101;28;20112;-69
2023/06/15 02:42:31;;;;;;;24.33;11.57;;;12.60;99.90;;;;;;5012548;28;20422;-70
2023/06/15 02:44:57;;;;;;;23.17;11.73;;;12.50;99.90;;;;;;5012455;28;20030;-69
2023/06/15 02:47:23;;;;;;;24.63;11.63;;;12.60;99.90;;;;;;5012223;28;20022;-69
2023/06/15 02:49:49;;;;;;;19.30;9.93;;;12.60;99.90;;;;;;5012034;28;20076;-67
2023/06/15 02:52:15;;;;;;;23.52;11.00;;;12.60;99.90;;;;;;5012142;28;20468;-70
2023/06/15 02:54:41;;;;;;;17.92;10.55;;;12.60;99.90;;;;;;5012174;28;20026;-70
2023/06/15 02:57:08;;;;;;;18.77;10.65;;;12.60;99.90;;;;;;4994470;28;20033;-70
2023/06/15 02:59:34;;;;;;;22.17;11.65;;;12.60;99.90;;;;;;5012467;28;20022;-70
2023/06/15 03:02:04;;;;;;;23.17;13.13;;;12.60;99.90;;;;;;5012030;28;20525;-71
2023/06/15 03:04:30;;;;;;;25.13;13.52;;;12.50;99.90;;;;;;5011819;28;20080;-71
2023/06/15 03:06:57;;;;;;;24.65;12.65;;;12.40;99.90;;;;;;5010943;28;20486;-70
2023/06/15 03:09:23;;;;;;;23.42;12.50;;;12.30;99.90;;;;;;5012394;28;20026;-69
2023/06/15 03:11:52;;;;;;;23.08;12.82;;;12.20;99.90;;;;;;4994492;28;20037;-69
2023/06/15 03:14:20;;;;;;;24.70;13.02;;;12.20;99.90;;;;;;4994399;28;20041;-70
2023/06/15 03:16:47;;;;;;;19.95;11.90;;;12.20;99.90;;;;;;5012177;28;20037;-70
2023/06/15 03:19:16;;;;;;;25.33;11.60;;;12.20;99.90;;;;;;5010664;28;20013;-69
2023/06/15 03:21:43;;;;;;;19.52;11.45;;;12.20;99.90;;;;;;5012855;28;20042;-70
2023/06/15 03:24:09;;;;;;;22.77;11.82;;;12.20;99.90;;;;;;5015776;28;20100;-69
2023/06/15 03:26:38;;;;;;;18.65;11.13;;;12.20;99.90;;;;;;5015689;28;20165;-69
2023/06/15 03:29:04;;;;;;;20.55;11.68;;;12.20;99.90;;;;;;5015819;28;20428;-69
2023/06/15 03:31:33;;;;;;;24.35;12.63;;;12.20;99.90;;;;;;5015585;28;20025;-69
2023/06/15 03:34:00;;;;;;;24.80;12.73;;;12.20;99.90;;;;;;5015626;28;20074;-69
2023/06/15 03:36:29;;;;;;;22.20;13.45;;;12.10;99.90;;;;;;5015672;28;20109;-71
2023/06/15 03:38:58;;;;;;;31.00;13.18;;;12.10;99.90;;;;;;5015662;28;20460;-71
2023/06/15 03:41:27;;;;;;;24.13;12.52;;;12.10;99.90;;;;;;5015498;28;20368;-69
2023/06/15 03:43:52;;;;;;;21.73;12.20;;;12.00;99.90;;;;;;5013720;28;20057;-70
2023/06/15 03:46:18;;;;;;;27.15;13.25;;;12.00;99.90;;;;;;5015272;28;20408;-70
2023/06/15 03:48:44;;;;;;;24.55;13.13;;;12.00;99.90;;;;;;5015383;28;20061;-69
2023/06/15 03:51:10;;;;;;;19.67;11.77;;;12.00;99.90;;;;;;5015545;28;20464;-70
2023/06/15 03:53:36;;;;;;;24.05;12.32;;;12.00;99.90;;;;;;4998035;28;20025;-69
2023/06/15 03:56:02;;;;;;;21.67;12.52;;;12.00;99.90;;;;;;5015539;28;20034;-71
2023/06/15 03:58:27;;;;;;;25.77;12.90;;;12.00;99.90;;;;;;5015307;28;20117;-69
2023/06/15 04:00:53;;;;;;;23.60;12.38;;;12.00;99.90;;;;;;5015387;28;20045;-69
2023/06/15 04:03:19;;;;;;;28.15;13.77;;;12.00;99.90;;;;;;4997461;28;20026;-69
2023/06/15 04:05:46;;;;;;;24.92;12.10;;;12.00;99.90;;;;;;5015161;28;20552;-69
2023/06/15 04:08:12;;;;;;;28.80;14.15;;;12.00;99.90;;;;;;5015078;28;20018;-70
2023/06/15 04:10:38;;;;;;;34.83;14.85;;;12.00;99.90;;;;;;5014881;28;20448;-70
2023/06/15 04:13:05;;;;;;;27.60;13.48;;;12.00;99.90;;;;;;5014982;28;20140;-69
2023/06/15 04:15:31;;;;;;;26.10;14.50;;;12.00;99.90;;;;;;5014710;28;20456;-69
2023/06/15 04:18:00;;;;;;;35.28;15.32;;;12.00;99.90;;;;;;5014870;28;20037;-68
2023/06/15 04:20:28;;;;;;;33.55;15.48;;;12.00;99.90;;;;;;5014791;28;20069;-69
2023/06/15 04:22:53;;;;;;;26.63;13.82;;;11.90;99.90;;;;;;5014764;28;20022;-70
2023/06/15 04:25:19;;;;;;;33.03;15.38;;;12.00;99.90;;;;;;5014730;28;20316;-69
2023/06/15 04:27:46;;;;;;;27.95;14.57;;;12.00;99.90;;;;;;5014920;28;20030;-69
2023/06/15 04:30:16;;;;;;;33.42;16.13;;;12.00;99.90;;;;;;5014901;28;20088;-70
2023/06/15 04:32:43;;;;;;;30.23;15.23;;;12.00;99.90;;;;;;5013472;28;20080;-69
2023/06/15 04:35:16;;;;;;;33.75;14.23;;;12.00;99.90;;;;;;5033176;28;20025;-70
2023/06/15 04:37:42;;;;;;;36.28;14.45;;;12.00;99.90;;;;;;5034281;28;20036;-69
2023/06/15 04:40:10;;;;;;;32.35;15.05;;;12.00;99.90;;;;;;5034436;28;20022;-69
2023/06/15 04:42:37;;;;;;;35.65;14.52;;;12.00;99.90;;;;;;5034243;28;20032;-69
2023/06/15 04:45:03;;;;;;;28.75;15.10;;;12.00;99.90;;;;;;5034339;28;20029;-69
2023/06/15 04:47:29;;;;;;;36.25;16.60;;;12.00;99.90;;;;;;5033913;28;20467;-69
2023/06/15 04:49:55;;;;;;;33.20;15.70;;;12.00;99.90;;;;;;5034021;28;20056;-69
2023/06/15 04:52:20;;;;;;;30.60;15.50;;;12.00;99.90;;;;;;5033988;28;20105;-69
2023/06/15 04:54:46;;;;;;;35.80;16.08;;;12.10;99.90;;;;;;5033775;28;20033;-69
2023/06/15 04:57:12;;;;;;;31.38;15.05;;;12.10;99.90;;;;;;5034088;28;20030;-70
2023/06/15 04:59:40;;;;;;;28.52;14.88;;;12.10;99.90;;;;;;5034054;28;20061;-69
2023/06/15 05:02:07;;;;;;;29.50;14.00;;;12.20;99.90;;;;;;5033705;28;20049;-70
2023/06/15 05:04:33;;;;;;;30.60;15.73;;;12.20;99.90;;;;;;5033623;28;20120;-70
2023/06/15 05:06:59;;;;;;;33.97;16.48;;;12.20;99.90;;;;;;5033606;28;20056;-70
2023/06/15 05:09:24;;;;;;;32.38;14.95;;;12.30;99.90;;;;;;5033635;28;20029;-70
2023/06/15 05:11:50;;;;;;;30.08;14.73;;;12.30;99.90;;;;;;5033773;28;20025;-69
2023/06/15 05:14:16;;;;;;;29.00;13.82;;;12.30;99.90;;;;;;5033728;28;20025;-69
2023/06/15 05:16:41;;;;;;;33.58;14.27;;;12.40;99.90;;;;;;5033310;28;20033;-71
2023/06/15 05:19:07;;;;;;;30.00;14.45;;;12.40;99.90;;;;;;5033668;28;20084;-70
2023/06/15 05:21:32;;;;;;;34.38;15.68;;;12.40;99.90;;;;;;5021787;28;20045;-69
2023/06/15 05:23:58;;;;;;;33.58;16.23;;;12.50;99.90;;;;;;5033310;28;20036;-69
2023/06/15 05:26:25;;;;;;;32.97;15.57;;;12.50;99.90;;;;;;5033355;28;20418;-70
2023/06/15 05:28:51;;;;;;;30.10;13.90;;;12.50;99.90;;;;;;5033602;28;20036;-71
2023/06/15 05:31:16;;;;;;;31.00;14.05;;;12.60;99.90;;;;;;5033627;28;20449;-69
2023/06/15 05:33:42;;;;;;;31.30;15.32;;;12.60;99.90;;;;;;5033390;28;20463;-69
2023/06/15 05:36:08;;;;;;;31.05;13.40;;;12.70;99.90;;;;;;5033066;28;20379;-70
2023/06/15 05:38:34;;;;;;;32.60;14.35;;;12.70;99.90;;;;;;5032911;28;20021;-71
2023/06/15 05:40:59;;;;;;;31.23;14.98;;;12.70;99.90;;;;;;5033372;28;20025;-70
2023/06/15 05:43:26;;;;;;;29.60;13.40;;;12.70;99.90;;;;;;5032611;28;20036;-69
2023/06/15 05:45:51;;;;;;;34.17;15.10;;;12.70;99.90;;;;;;5032866;28;20022;-69
2023/06/15 05:48:19;;;;;;;37.35;15.75;;;12.80;99.90;;;;;;5032850;28;20076;-69
2023/06/15 05:50:45;;;;;;;36.60;14.80;;;12.80;99.90;;;;;;5032638;28;20029;-71
2023/06/15 05:53:10;;;;;;;37.17;15.55;;;12.90;99.90;;;;;;5032547;28;20371;-70
2023/06/15 05:55:36;;;;;;;35.92;16.75;;;12.90;99.90;;;;;;5015228;28;20075;-69
2023/06/15 05:58:02;;;;;;;38.58;16.35;;;13.00;99.90;;;;;;5032595;28;20421;-69
2023/06/15 06:00:30;;;;;;;38.55;16.67;;;13.00;99.90;;;;;;5032932;28;20033;-70
2023/06/15 06:02:56;;;;;;;37.42;16.42;;;13.00;99.90;;;;;;5032696;28;20014;-69
2023/06/15 06:05:23;;;;;;;36.75;15.60;;;13.10;99.90;;;;;;5032532;28;20029;-69
2023/06/15 06:07:49;;;;;;;35.65;16.67;;;13.10;99.90;;;;;;5014981;28;20026;-71
2023/06/15 06:10:18;;;;;;;40.83;17.05;;;13.20;99.90;;;;;;5032502;28;20025;-69
2023/06/15 06:12:44;;;;;;;37.50;16.60;;;13.30;99.90;;;;;;5032750;28;20040;-69
2023/06/15 06:15:10;;;;;;;34.22;16.88;;;13.40;99.90;;;;;;5032440;28;20387;-70
2023/06/15 06:17:36;;;;;;;34.97;16.15;;;13.40;99.90;;;;;;5032850;28;20364;-69
2023/06/15 06:20:05;;;;;;;33.63;16.98;;;13.50;99.90;;;;;;5032323;28;20041;-70
2023/06/15 06:22:32;;;;;;;38.15;17.90;;;13.60;99.90;;;;;;5032687;28;20065;-69
2023/06/15 06:24:57;;;;;;;37.72;16.77;;;13.70;99.90;;;;;;5032567;28;20028;-69
2023/06/15 06:27:23;;;;;;;39.58;17.90;;;13.80;99.90;;;;;;5032544;28;20026;-69
2023/06/15 06:29:49;;;;;;;38.60;19.30;;;13.90;99.90;;;;;;5032421;28;20069;-70
2023/06/15 06:32:14;;;;;;;39.65;19.17;;;13.90;99.90;;;;;;5032193;28;20030;-69
2023/06/15 06:34:40;;;;;;;43.00;19.85;;;14.00;99.90;;;;;;5031896;28;20032;-68
2023/06/15 06:37:06;;;;;;;39.95;19.17;;;14.00;99.90;;;;;;5032261;28;20033;-69
2023/06/15 06:39:32;;;;;;;42.17;19.05;;;14.10;99.90;;;;;;5032200;28;20060;-69
2023/06/15 06:41:58;;;;;;;37.03;18.63;;;14.20;99.90;;;;;;5032051;28;20017;-69
2023/06/15 06:44:24;;;;;;;39.53;17.50;;;14.20;99.90;;;;;;5032169;28;20032;-70
2023/06/15 06:46:50;;;;;;;39.10;17.95;;;14.30;99.90;;;;;;5027431;28;20040;-69
2023/06/15 06:49:15;;;;;;;40.60;17.90;;;14.40;99.90;;;;;;5020494;28;20032;-71
2023/06/15 06:51:41;;;;;;;35.53;16.10;;;14.50;99.90;;;;;;5020233;28;20515;-69
2023/06/15 06:54:07;;;;;;;34.42;15.75;;;14.60;99.90;;;;;;5021867;28;20300;-70
2023/06/15 06:56:32;;;;;;;32.55;14.70;;;14.70;99.90;;;;;;5014505;28;20022;-69
2023/06/15 06:58:58;;;;;;;33.88;16.85;;;14.70;99.90;;;;;;5021410;28;20026;-68
2023/06/15 07:01:24;;;;;;;37.53;16.90;;;14.80;99.90;;;;;;5024839;28;20033;-70
2023/06/15 07:03:50;;;;;;;33.45;16.67;;;14.90;99.90;;;;;;5011589;28;20029;-70
2023/06/15 07:06:16;;;;;;;38.35;16.55;;;15.00;99.90;;;;;;5036154;28;20474;-69
2023/06/15 07:08:42;;;;;;;34.60;17.35;;;15.10;99.90;;;;;;5035950;28;20025;-69
2023/06/15 07:11:07;;;;;;;33.78;16.10;;;15.20;99.90;;;;;;5035742;28;20382;-68
2023/06/15 07:13:33;;;;;;;33.13;15.70;;;15.40;99.90;;;;;;5035885;28;20096;-69
2023/06/15 07:15:59;;;;;;;33.70;16.23;;;15.40;99.90;;;;;;5021666;28;20464;-68
2023/06/15 07:18:25;;;;;;;28.90;12.48;;;15.60;99.90;;;;;;5015633;28;20375;-68
2023/06/15 07:20:54;;;;;;;28.67;14.80;;;15.70;99.90;;;;;;5014530;28;20060;-69
2023/06/15 07:23:23;;;;;;;27.73;15.52;;;15.80;99.90;;;;;;5018081;28;20029;-69
2023/06/15 07:25:51;;;;;;;28.83;14.43;;;16.00;99.90;;;;;;5015190;28;20105;-69
2023/06/15 07:28:17;;;;;;;27.38;12.80;;;16.10;99.90;;;;;;5027770;28;20031;-69
2023/06/15 07:30:44;;;;;;;26.52;13.02;;;16.20;99.90;;;;;;5022037;28;20425;-68
2023/06/15 07:33:11;;;;;;;28.38;13.80;;;16.30;99.90;;;;;;5013149;28;20453;-68
2023/06/15 07:35:37;;;;;;;26.65;13.98;;;16.40;99.90;;;;;;5027963;28;20142;-68
2023/06/15 07:38:03;;;;;;;33.38;14.23;;;16.50;99.90;;;;;;5032242;28;20029;-68
2023/06/15 07:40:28;;;;;;;25.35;12.60;;;16.50;99.90;;;;;;5033336;28;20022;-68
2023/06/15 07:42:54;;;;;;;31.48;13.15;;;16.60;99.90;;;;;;5015443;28;20022;-68
2023/06/15 07:45:20;;;;;;;25.75;13.93;;;16.80;99.90;;;;;;5014671;28;20026;-68
2023/06/15 07:47:45;;;;;;;24.70;12.38;;;16.90;99.90;;;;;;5015106;28;20238;-68
2023/06/15 07:50:11;;;;;;;23.48;11.85;;;17.00;99.90;;;;;;5015360;28;20375;-68
2023/06/15 07:52:37;;;;;;;21.63;10.73;;;17.10;99.90;;;;;;5019006;28;20059;-68
2023/06/15 07:55:04;;;;;;;27.70;11.98;;;17.30;99.90;;;;;;5015138;28;20029;-69
2023/06/15 07:57:30;;;;;;;21.83;11.82;;;17.40;99.90;;;;;;5018764;28;20026;-68
2023/06/15 07:59:57;;;;;;;24.83;12.85;;;17.50;99.90;;;;;;5012546;28;20589;-70
2023/06/15 08:02:22;;;;;;;19.75;8.93;;;17.70;99.90;;;;;;5016588;28;20029;-68
2023/06/15 08:04:48;;;;;;;19.60;10.50;;;17.80;99.90;;;;;;5029482;28;20022;-69
2023/06/15 08:07:14;;;;;;;18.27;7.22;;;18.00;99.90;;;;;;5023965;28;20401;-68
2023/06/15 08:09:39;;;;;;;14.23;6.85;;;18.10;99.90;;;;;;5007080;28;20092;-69
2023/06/15 08:12:05;;;;;;;12.50;6.88;;;18.20;99.90;;;;;;5021424;28;20022;-69
2023/06/15 08:14:31;;;;;;;14.10;6.30;;;18.40;99.90;;;;;;5014254;28;20014;-70
2023/06/15 08:16:56;;;;;;;14.60;7.38;;;18.50;99.90;;;;;;5024946;28;20048;-69
2023/06/15 08:19:22;;;;;;;11.38;6.63;;;18.70;99.90;;;;;;5022338;28;20048;-68
2023/06/15 08:21:48;;;;;;;13.82;6.60;;;18.80;99.90;;;;;;5022852;28;20025;-69
2023/06/15 08:24:13;;;;;;;13.82;7.55;;;19.00;99.90;;;;;;5019859;28;20068;-68
2023/06/15 08:26:40;;;;;;;14.38;6.20;;;19.20;99.90;;;;;;5019353;28;20152;-68
2023/06/15 08:29:07;;;;;;;11.65;6.68;;;19.30;99.90;;;;;;5021548;28;20452;-68
2023/06/15 08:31:34;;;;;;;9.57;5.70;;;19.50;99.90;;;;;;5022738;28;20021;-71
2023/06/15 08:33:59;;;;;;;11.55;5.90;;;19.60;99.90;;;;;;5021343;28;20045;-72
2023/06/15 08:36:25;;;;;;;11.85;6.18;;;19.80;99.30;;;;;;5017816;28;20452;-71
2023/06/15 08:38:51;;;;;;;18.35;6.80;;;19.90;98.50;;;;;;5014217;28;20060;-68
2023/06/15 08:41:17;;;;;;;15.10;6.55;;;20.00;97.50;;;;;;5021957;28;20048;-70
2023/06/15 08:43:45;;;;;;;10.65;5.75;;;20.20;96.50;;;;;;5016712;28;20014;-69
2023/06/15 08:46:12;;;;;;;10.55;5.95;;;20.20;95.70;;;;;;5024957;28;20060;-69
2023/06/15 08:48:38;;;;;;;11.35;4.60;;;20.40;95.00;;;;;;5002886;28;20030;-71
2023/06/15 08:51:12;;;;;;;11.30;6.18;;;20.50;94.20;;;;;;5006366;28;20020;-69
2023/06/15 08:53:40;;;;;;;12.18;5.38;;;20.70;93.20;;;;;;5019191;28;20534;-68
2023/06/15 08:56:11;;;;;;;15.02;5.70;;;20.80;92.80;;;;;;5027025;28;20037;-68
2023/06/15 08:58:37;;;;;;;11.45;5.50;;;20.90;91.70;;;;;;5027137;28;20025;-71
2023/06/15 09:01:03;;;;;;;13.60;6.47;;;21.10;91.10;;;;;;5023406;28;20024;-68
2023/06/15 09:03:31;;;;;;;11.82;5.95;;;21.20;90.20;;;;;;5019477;28;20024;-70
2023/06/15 09:05:57;;;;;;;12.45;6.35;;;21.30;89.60;;;;;;5018232;28;20014;-71
2023/06/15 09:08:24;;;;;;;9.85;5.72;;;21.40;88.80;;;;;;5021344;28;20410;-69
2023/06/15 09:10:49;;;;;;;11.43;5.18;;;21.50;87.40;;;;;;5026853;28;20483;-69
2023/06/15 09:13:16;;;;;;;8.88;5.25;;;21.60;86.50;;;;;;5014422;28;20127;-72
2023/06/15 09:15:43;;;;;;;10.73;5.55;;;21.80;85.50;;;;;;5018205;28;20030;-72
2023/06/15 09:18:13;;;;;;;10.10;5.15;;;21.90;84.80;;;;;;4999561;28;20530;-70
2023/06/15 09:20:38;;;;;;;9.27;5.20;;;22.00;83.80;;;;;;5019730;28;20041;-70
2023/06/15 09:23:09;;;;;;;10.40;5.50;;;22.20;82.80;;;;;;5018945;28;20024;-70
2023/06/15 09:25:36;;;;;;;11.30;5.88;;;22.40;81.80;;;;;;5019635;28;20064;-73
2023/06/15 09:28:04;;;;;;;14.00;5.72;;;22.50;80.80;;;;;;5021667;28;20089;-69
2023/06/15 09:30:34;;;;;;;13.88;6.38;;;22.60;79.50;;;;;;5018608;28;20025;-70
2023/06/15 09:33:14;;;;;;;11.73;5.77;;;22.70;79.10;;;;;;5016918;28;20017;-70
2023/06/15 09:36:09;;;;;;;14.52;5.28;;;22.90;78.20;;;;;;5020208;28;20053;-70
2023/06/15 09:38:44;;;;;;;14.30;5.90;;;23.00;77.60;;;;;;5000373;28;20026;-70
2023/06/15 09:41:10;;;;;;;9.38;5.03;;;23.10;76.40;;;;;;5026174;28;20022;-69
2023/06/15 09:43:40;;;;;;;9.10;5.35;;;23.30;76.00;;;;;;5017491;28;20033;-69
2023/06/15 09:46:10;;;;;;;9.57;5.30;;;23.50;75.70;;;;;;4999679;28;20029;-70
2023/06/15 09:48:40;;;;;;;12.88;6.20;;;23.60;74.90;;;;;;5021217;28;20800;-73
2023/06/15 09:51:06;;;;;;;11.60;5.43;;;23.70;73.80;;;;;;5013456;28;20480;-72
2023/06/15 09:53:33;;;;;;;9.23;5.80;;;23.90;73.30;;;;;;5033849;28;20379;-69
2023/06/15 09:56:00;;;;;;;8.60;5.10;;;23.90;72.30;;;;;;5019587;28;20041;-70
2023/06/15 09:58:26;;;;;;;9.13;5.28;;;23.90;71.80;;;;;;5020306;28;20491;-71
2023/06/15 10:00:57;;;;;;;8.95;6.05;;;23.90;71.60;;;;;;5022753;28;20411;-71
2023/06/15 10:03:27;;;;;;;9.27;5.72;;;23.90;71.50;;;;;;5016716;28;20478;-69
2023/06/15 10:05:54;;;;;;;11.37;5.50;;;24.00;71.20;;;;;;5023610;28;20018;-72
2023/06/15 10:08:25;;;;;;;8.80;5.72;;;24.10;70.70;;;;;;5021021;28;20381;-69
2023/06/15 10:10:52;;;;;;;8.85;5.30;;;24.30;70.20;;;;;;5017815;28;20135;-72
2023/06/15 10:13:49;;;;;;;8.15;4.70;;;24.50;69.70;;;;;;5021553;28;20113;-69
2023/06/15 10:16:17;;;;;;;11.48;5.13;;;24.60;68.30;;;;;;5019609;28;20056;-72
2023/06/15 10:18:46;;;;;;;10.27;5.07;;;24.70;67.70;;;;;;5021978;28;20459;-70
2023/06/15 10:21:18;;;;;;;10.52;4.50;;;24.90;67.20;;;;;;5015440;28;20100;-70
2023/06/15 10:23:46;;;;;;;8.48;5.55;;;25.10;66.60;;;;;;5000404;28;20030;-69
2023/06/15 10:26:12;;;;;;;8.82;5.65;;;25.20;65.70;;;;;;5015242;28;20025;-69
2023/06/15 10:28:48;;;;;;;8.93;4.38;;;25.20;65.40;;;;;;5007322;28;20475;-70
2023/06/15 10:31:22;;;;;;;8.35;5.20;;;25.20;65.30;;;;;;5011291;28;20029;-71
2023/06/15 10:34:05;;;;;;;8.32;5.38;;;25.50;64.90;;;;;;5028343;28;20025;-70
2023/06/15 10:36:41;;;;;;;11.82;5.65;;;25.60;64.10;;;;;;5031932;28;20041;-70
2023/06/15 10:39:22;;;;;;;11.50;5.40;;;25.80;63.80;;;;;;5035275;28;20036;-70
2023/06/15 10:41:58;;;;;;;7.65;4.85;;;26.10;62.90;;;;;;5033868;28;20021;-68
2023/06/15 10:44:31;;;;;;;9.18;4.70;;;26.30;62.30;;;;;;5032520;28;20079;-68
2023/06/15 10:47:20;;;;;;;12.18;5.32;;;26.40;61.90;;;;;;5008106;28;20558;-72
2023/06/15 10:49:50;;;;;;;9.53;5.43;;;26.50;61.60;;;;;;5022009;28;20029;-72
2023/06/15 10:52:16;;;;;;;10.55;5.18;;;26.60;61.30;;;;;;5031515;28;20474;-73
2023/06/15 10:54:42;;;;;;;11.00;5.82;;;26.70;61.10;;;;;;5031875;28;20026;-69
2023/06/15 10:57:08;;;;;;;11.65;5.50;;;26.80;60.40;;;;;;5012681;28;20037;-69
2023/06/15 10:59:49;;;;;;;13.80;5.30;;;26.90;60.00;;;;;;5012598;28;20494;-68
2023/06/15 11:02:33;;;;;;;12.38;4.88;;;27.00;58.80;;;;;;5010471;28;20048;-69
2023/06/15 11:05:03;;;;;;;12.00;4.25;;;26.90;58.70;;;;;;5012356;28;20030;-70
2023/06/15 11:07:35;;;;;;;9.63;5.20;;;27.00;58.90;;;;;;5012423;28;20029;-70
2023/06/15 11:10:02;;;;;;;10.07;4.10;;;27.20;58.70;;;;;;5012305;28;20034;-70
2023/06/15 11:12:39;;;;;;;9.50;5.30;;;27.20;57.90;;;;;;5017226;28;20084;-72
2023/06/15 11:15:06;;;;;;;8.77;5.40;;;27.20;58.00;;;;;;5005953;28;20534;-70
2023/06/15 11:17:52;;;;;;;9.30;4.55;;;27.30;58.20;;;;;;5012497;28;20079;-72
2023/06/15 11:20:43;;;;;;;5.20;3.63;;;27.40;57.60;;;;;;4995287;28;20057;-71
2023/06/15 11:23:18;;;;;;;9.05;4.22;;;27.50;57.20;;;;;;5015292;28;20101;-71
2023/06/15 11:25:46;;;;;;;13.15;5.07;;;27.60;56.90;;;;;;5030370;28;20134;-70
2023/06/15 11:28:15;;;;;;;6.80;4.35;;;27.80;56.70;;;;;;5018272;28;20026;-71
2023/06/15 11:30:42;;;;;;;6.70;3.93;;;28.00;56.30;;;;;;5027022;28;20025;-72
2023/06/15 11:33:12;;;;;;;8.13;4.57;;;28.00;56.30;;;;;;5005895;28;20411;-69
2023/06/15 11:35:38;;;;;;;7.38;4.22;;;28.00;56.50;;;;;;5012431;28;20026;-71
2023/06/15 11:38:07;;;;;;;7.30;4.03;;;28.10;56.20;;;;;;5012150;28;20026;-70
2023/06/15 11:40:33;;;;;;;8.73;3.58;;;28.30;55.80;;;;;;5016326;28;20028;-71
2023/06/15 11:43:00;;;;;;;7.05;4.07;;;28.50;55.80;;;;;;5034653;28;20078;-73
2023/06/15 11:45:26;;;;;;;9.05;4.15;;;28.60;55.00;;;;;;5035066;28;20411;-70
2023/06/15 11:47:52;;;;;;;7.05;3.75;;;28.60;54.80;;;;;;5035614;28;20108;-70
2023/06/15 11:50:20;;;;;;;8.45;3.80;;;28.80;54.60;;;;;;5018260;28;20017;-70
2023/06/15 11:52:46;;;;;;;4.50;2.95;;;29.00;54.20;;;;;;5016894;28;20050;-72
2023/06/15 11:55:13;;;;;;;7.93;3.58;;;28.90;54.10;;;;;;5014160;28;20029;-69
2023/06/15 11:57:41;;;;;;;5.03;2.83;;;29.00;54.30;;;;;;5017684;28;20048;-70
2023/06/15 12:00:10;;;;;;;5.10;3.33;;;29.00;54.20;;;;;;5022339;28;20579;-69
2023/06/15 12:02:36;;;;;;;9.27;3.13;;;29.00;54.40;;;;;;5033853;28;20455;-69
2023/06/15 12:05:02;;;;;;;5.97;2.80;;;29.00;54.30;;;;;;5035119;28;20025;-72
2023/06/15 12:07:35;;;;;;;5.70;2.75;;;29.10;53.80;;;;;;5025731;28;20033;-69
2023/06/15 12:10:03;;;;;;;5.30;3.03;;;29.10;53.00;;;;;;5016296;28;20522;-69
2023/06/15 12:12:30;;;;;;;4.40;3.17;;;29.00;52.70;;;;;;5004806;28;20494;-72
2023/06/15 12:14:58;;;;;;;7.63;3.00;;;28.80;52.80;;;;;;5021604;28;20093;-71
2023/06/15 12:17:29;;;;;;;3.83;2.83;;;28.50;53.30;;;;;;5013326;28;20042;-69
2023/06/15 12:20:08;;;;;;;7.20;3.17;;;28.10;53.70;;;;;;5029627;28;20533;-71
2023/06/15 12:22:42;;;;;;;3.45;2.78;;;28.10;53.70;;;;;;5047459;28;20033;-70
2023/06/15 12:25:08;;;;;;;4.82;3.20;;;28.30;53.60;;;;;;5034609;28;20036;-70
2023/06/15 12:27:47;;;;;;;6.45;3.38;;;28.50;53.80;;;;;;5034026;28;20021;-70
2023/06/15 12:30:15;;;;;;;7.70;3.03;;;28.80;54.00;;;;;;5026143;28;20034;-70
2023/06/15 12:32:48;;;;;;;4.90;2.95;;;29.00;53.60;;;;;;5005645;28;20471;-70
2023/06/15 12:35:38;;;;;;;3.90;2.85;;;29.00;53.20;;;;;;5014204;28;20033;-71
2023/06/15 12:38:11;;;;;;;4.00;2.70;;;29.20;53.20;;;;;;5014720;28;20030;-72